AirNav   Duncan Aviation - Near you to keep you flying
 
 1101 users online  

37CA Billy Joe Airport
Temecula, California, USA

GOING TO TEMECULA?


FAA INFORMATION EFFECTIVE 01 DECEMBER 2022

Location

FAA Identifier: 37CA
Lat/Long: 33-30-25.1020N 117-04-17.1040W
33-30.418367N 117-04.285067W
33.5069728,-117.0714178
(estimated)
Elevation: 1350 ft. / 411.5 m (surveyed)
Variation: 14E (1985)
From city: 4 miles NE of TEMECULA, CA
Time zone: UTC -8 (UTC -7 during Daylight Saving Time)
Zip code: 92592

Airport Operations

Airport use: Private use. Permission required prior to landing
Activation date: 07/1981
Control tower: no
ARTCC: LOS ANGELES CENTER
FSS: RIVERSIDE FLIGHT SERVICE STATION
Attendance: UNATNDD
Wind indicator: yes
Segmented circle: no

Airport Communications

WX AWOS-3 at F70 (5 nm NW): 119.025 (951-696-1018)
WX AWOS-3P at L18 (13 nm SW): 118.425 (760-723-6073)
WX AWOS-3PT at HMT (14 nm N): 118.375 (951-925-6886)

Nearby radio navigation aids

VOR radial/distance  VOR name  Freq  Var
HDFr147/(17.1)HOMELAND VOR112.0514E
OCNr032/23.6OCEANSIDE VORTAC115.3015E
JLIr297/32.8JULIAN VORTAC114.0015E
RALr131/(32.9)RIVERSIDE VOR108.6014E
PDZr122/33.7PARADISE VORTAC112.2015E
ELBr093/34.5EL TORO VOR/DME117.2014E
PSPr223/38.7PALM SPRINGS VORTAC115.5013E

Airport Services

Runway Information

Runway 4/22

Dimensions: 2200 x 40 ft. / 671 x 12 m
Surface: asphalt, in good condition
Operational restrictions: LAND RWY 04, TAKEOFF RWY 22.
RUNWAY 4  RUNWAY 22
Traffic pattern: leftleft

Airport Ownership and Management from official FAA records

Ownership: Privately-owned
Owner: AIRSTRIP COMMUNITY ASSOC.
33800 LINDA ROSEA ROAD
TEMECULA, CA 92592
Phone (951) 676-5434
Manager: JOAN DEFAZIO
33800 LINDA ROSEA ROAD
TEMECULA, CA 92592
Phone (951) 676-5434

Additional Remarks

FOR CD CTC LOS ANGELES ARTCC AT 661-575-2079.

Instrument Procedures

There are no published instrument procedures at 37CA.

Some nearby airports with instrument procedures:

F70 - French Valley Airport (5 nm NW)
L18 - Fallbrook Community Airpark (13 nm SW)
KHMT - Hemet-Ryan Airport (14 nm N)
KNFG - Camp Pendleton MCAS (Munn Field) Airport (19 nm SW)
KOKB - Bob Maxwell Memorial Airfield (22 nm SW)
 
Loc | Ops | Rwys | IFR | FBO | Links
Com | Nav | Svcs | Stats | Notes

Luxivair - San Bernardino International Airport
 
Area around 37CA (Billy Joe Airport)
 
Road maps at: MapQuest Bing Google
 
Aerial photo
No photo
 
Sectional chart

 
Airport distance calculator
Flying to Billy Joe Airport? Find the distance to fly.

From to 37CA

Sunrise and sunset
Times for 06-Dec-2022
 Local
(UTC-8)
 Zulu
(UTC)
Morning civil twilight06:1214:12
Sunrise06:4014:40
Sunset16:3900:39
Evening civil twilight17:0601:06

Current date and time
Zulu (UTC)  07-Dec-2022 03:08:16
Local (UTC-8)  06-Dec-2022 19:08:16
 
METAR
KF70 
5nm NW 
070255Z AUTO 00000KT 10SM SCT043 BKN050 10/08 A3005 RMK AO2
KL18 
13nm SW 
070255Z AUTO 00000KT 10SM CLR 10/09 A3006 RMK AO2
KHMT 
14nm N 
070255Z AUTO 19007KT 10SM SCT041 OVC048 11/08 A3004 RMK AO2 T01050077
KNFG 
19nm SW 
070252Z 04003KT 10SM BKN200 11/08 A3006 RMK AO2 SLP179 T01110078 51013 $
TAF
KNFG 
19nm SW 
0621/0721 21010KT 9999 BKN034 531809 532709 533602 QNH3002INS BECMG 0702/0704 VRB05KT 9999 BKN030 531809 532709 533602 QNH3006INS BECMG 0718/0720 23010KT 9999 BKN035 531809 532709 533602 QNH3003INS T18/0621Z T06/0714Z
NOTAMs
Click for the latest NOTAMs
NOTAMs are issued by the DoD/FAA and will open in a separate window not controlled by AirNav.

 

 
 

Would you like to see your business listed on this page?

 If your business provides an interesting product or service to pilots, flight crews, aircraft, or users of the Billy Joe Airport, you should consider listing it here.  To start the listing process, click on the button below
 
Add a business
 

Other Pages about Billy Joe Airport

Update a link
 
Copyright © AirNav, LLC. All rights reserved. Privacy Policy  Contact